sensor_id;sensor_type;location;lat;lon;timestamp;pressure;altitude;pressure_sealevel;temperature;humidity
14041;BME280;7095;51.388;6.196;2023-04-05T00:01:13;54318.28;;;-145.32;100.00
14041;BME280;7095;51.388;6.196;2023-04-05T00:03:44;54346.13;;;-145.32;100.00
14041;BME280;7095;51.388;6.196;2023-04-05T00:06:13;54306.34;;;-145.32;100.00
14041;BME280;7095;51.388;6.196;2023-04-05T00:08:42;54310.34;;;-145.32;100.00
14041;BME280;7095;51.388;6.196;2023-04-05T00:11:16;54306.34;;;-145.32;100.00
14041;BME280;7095;51.388;6.196;2023-04-05T00:13:45;54336.19;;;-145.32;100.00
14041;BME280;7095;51.388;6.196;2023-04-05T00:16:16;54330.22;;;-145.32;100.00
14041;BME280;7095;51.388;6.196;2023-04-05T00:18:46;54326.25;;;-145.32;100.00
14041;BME280;7095;51.388;6.196;2023-04-05T00:21:18;54334.19;;;-145.32;100.00
14041;BME280;7095;51.388;6.196;2023-04-05T00:23:52;54338.16;;;-145.32;100.00
14041;BME280;7095;51.388;6.196;2023-04-05T00:26:22;54375.94;;;-145.32;100.00
14041;BME280;7095;51.388;6.196;2023-04-05T00:28:55;54336.19;;;-145.32;100.00
14041;BME280;7095;51.388;6.196;2023-04-05T00:31:23;54358.06;;;-145.32;100.00
14041;BME280;7095;51.388;6.196;2023-04-05T00:33:53;54366.00;;;-145.32;100.00
14041;BME280;7095;51.388;6.196;2023-04-05T00:36:21;54383.91;;;-145.32;100.00
14041;BME280;7095;51.388;6.196;2023-04-05T00:38:50;54391.84;;;-145.32;100.00
14041;BME280;7095;51.388;6.196;2023-04-05T00:41:18;54391.84;;;-145.32;100.00
14041;BME280;7095;51.388;6.196;2023-04-05T00:43:47;54405.78;;;-145.32;100.00
14041;BME280;7095;51.388;6.196;2023-04-05T00:46:15;54443.56;;;-145.32;100.00
14041;BME280;7095;51.388;6.196;2023-04-05T00:48:44;54401.81;;;-145.32;100.00
14041;BME280;7095;51.388;6.196;2023-04-05T00:51:14;54407.78;;;-145.32;100.00
14041;BME280;7095;51.388;6.196;2023-04-05T00:53:43;54409.75;;;-145.32;100.00
14041;BME280;7095;51.388;6.196;2023-04-05T00:56:13;54429.66;;;-145.32;100.00
14041;BME280;7095;51.388;6.196;2023-04-05T00:58:42;54421.69;;;-145.32;100.00
14041;BME280;7095;51.388;6.196;2023-04-05T01:01:14;54417.72;;;-145.32;100.00
14041;BME280;7095;51.388;6.196;2023-04-05T01:03:48;54443.56;;;-145.32;100.00
14041;BME280;7095;51.388;6.196;2023-04-05T01:06:56;54451.53;;;-145.32;100.00
14041;BME280;7095;51.388;6.196;2023-04-05T01:09:36;54473.41;;;-145.32;100.00
14041;BME280;7095;51.388;6.196;2023-04-05T01:12:08;54447.53;;;-145.32;100.00
14041;BME280;7095;51.388;6.196;2023-04-05T01:14:45;54373.97;;;-145.32;100.00
14041;BME280;7095;51.388;6.196;2023-04-05T01:17:13;54354.06;;;-145.32;100.00
14041;BME280;7095;51.388;6.196;2023-04-05T01:19:42;54371.97;;;-145.32;100.00
14041;BME280;7095;51.388;6.196;2023-04-05T01:31:22;54427.66;;;-145.32;100.00
14041;BME280;7095;51.388;6.196;2023-04-05T01:33:58;54443.56;;;-145.32;100.00
14041;BME280;7095;51.388;6.196;2023-04-05T01:36:32;54445.56;;;-145.32;100.00
14041;BME280;7095;51.388;6.196;2023-04-05T01:39:05;54441.56;;;-145.32;100.00
14041;BME280;7095;51.388;6.196;2023-04-05T01:41:37;54439.59;;;-145.32;100.00
14041;BME280;7095;51.388;6.196;2023-04-05T01:44:06;54437.59;;;-145.32;100.00
14041;BME280;7095;51.388;6.196;2023-04-05T01:46:36;54461.47;;;-145.32;100.00
14041;BME280;7095;51.388;6.196;2023-04-05T01:49:04;54457.47;;;-145.32;100.00
14041;BME280;7095;51.388;6.196;2023-04-05T01:51:36;54503.22;;;-145.32;100.00
14041;BME280;7095;51.388;6.196;2023-04-05T01:54:08;54505.22;;;-145.32;100.00
14041;BME280;7095;51.388;6.196;2023-04-05T01:56:36;54509.19;;;-145.32;100.00
14041;BME280;7095;51.388;6.196;2023-04-05T01:59:05;54505.22;;;-145.32;100.00
14041;BME280;7095;51.388;6.196;2023-04-05T02:01:33;54548.97;;;-145.32;100.00
14041;BME280;7095;51.388;6.196;2023-04-05T02:04:04;54467.44;;;-145.32;100.00
14041;BME280;7095;51.388;6.196;2023-04-05T02:06:32;54491.28;;;-145.32;100.00
14041;BME280;7095;51.388;6.196;2023-04-05T02:09:01;54495.28;;;-145.32;100.00
14041;BME280;7095;51.388;6.196;2023-04-05T02:11:29;54533.06;;;-145.32;100.00
14041;BME280;7095;51.388;6.196;2023-04-05T02:13:58;54544.97;;;-145.32;100.00
14041;BME280;7095;51.388;6.196;2023-04-05T02:16:27;54541.00;;;-145.32;100.00
14041;BME280;7095;51.388;6.196;2023-04-05T02:18:59;54568.84;;;-145.32;100.00
14041;BME280;7095;51.388;6.196;2023-04-05T02:21:29;54544.97;;;-145.32;100.00
14041;BME280;7095;51.388;6.196;2023-04-05T02:23:58;54533.06;;;-145.32;100.00
14041;BME280;7095;51.388;6.196;2023-04-05T02:26:26;54556.91;;;-145.32;100.00
14041;BME280;7095;51.388;6.196;2023-04-05T02:28:56;54586.75;;;-145.32;100.00
14041;BME280;7095;51.388;6.196;2023-04-05T02:31:25;54574.81;;;-145.32;100.00
14041;BME280;7095;51.388;6.196;2023-04-05T02:33:53;54588.75;;;-145.32;100.00
14041;BME280;7095;51.388;6.196;2023-04-05T02:36:23;54578.78;;;-145.32;100.00
14041;BME280;7095;51.388;6.196;2023-04-05T02:38:55;54616.56;;;-145.32;100.00
14041;BME280;7095;51.388;6.196;2023-04-05T02:41:24;54566.84;;;-145.32;100.00
14041;BME280;7095;51.388;6.196;2023-04-05T02:43:52;54568.84;;;-145.32;100.00
14041;BME280;7095;51.388;6.196;2023-04-05T02:46:21;54546.97;;;-145.32;100.00
14041;BME280;7095;51.388;6.196;2023-04-05T02:48:50;54614.59;;;-145.32;100.00
14041;BME280;7095;51.388;6.196;2023-04-05T02:51:18;54630.50;;;-145.32;100.00
14041;BME280;7095;51.388;6.196;2023-04-05T02:53:47;54640.44;;;-145.32;100.00
14041;BME280;7095;51.388;6.196;2023-04-05T02:56:16;54628.50;;;-145.32;100.00
14041;BME280;7095;51.388;6.196;2023-04-05T02:58:46;54670.28;;;-145.32;100.00
14041;BME280;7095;51.388;6.196;2023-04-05T03:01:21;54620.56;;;-145.32;100.00
14041;BME280;7095;51.388;6.196;2023-04-05T03:03:49;54616.56;;;-145.32;100.00
14041;BME280;7095;51.388;6.196;2023-04-05T03:06:19;54640.44;;;-145.32;100.00
14041;BME280;7095;51.388;6.196;2023-04-05T03:08:50;54672.25;;;-145.32;100.00
14041;BME280;7095;51.388;6.196;2023-04-05T03:11:24;54640.44;;;-145.32;100.00
14041;BME280;7095;51.388;6.196;2023-04-05T03:13:56;54658.34;;;-145.32;100.00
14041;BME280;7095;51.388;6.196;2023-04-05T03:16:36;54684.19;;;-145.32;100.00
14041;BME280;7095;51.388;6.196;2023-04-05T03:19:15;54698.13;;;-145.32;100.00
14041;BME280;7095;51.388;6.196;2023-04-05T03:21:46;54634.47;;;-145.32;100.00
14041;BME280;7095;51.388;6.196;2023-04-05T03:24:34;54680.22;;;-145.32;100.00
14041;BME280;7095;51.388;6.196;2023-04-05T03:27:08;54698.13;;;-145.32;100.00
14041;BME280;7095;51.388;6.196;2023-04-05T03:29:56;54747.84;;;-145.32;100.00
14041;BME280;7095;51.388;6.196;2023-04-05T03:32:25;54706.06;;;-145.32;100.00
14041;BME280;7095;51.388;6.196;2023-04-05T03:35:01;54684.19;;;-145.32;100.00
14041;BME280;7095;51.388;6.196;2023-04-05T03:37:31;54747.84;;;-145.32;100.00
14041;BME280;7095;51.388;6.196;2023-04-05T03:40:05;54787.63;;;-145.32;100.00
14041;BME280;7095;51.388;6.196;2023-04-05T03:42:38;54751.81;;;-145.32;100.00
14041;BME280;7095;51.388;6.196;2023-04-05T03:45:09;54759.78;;;-145.32;100.00
14041;BME280;7095;51.388;6.196;2023-04-05T03:47:38;54710.06;;;-145.32;100.00
14041;BME280;7095;51.388;6.196;2023-04-05T03:50:07;54731.94;;;-145.32;100.00
14041;BME280;7095;51.388;6.196;2023-04-05T03:52:36;54716.00;;;-145.32;100.00
14041;BME280;7095;51.388;6.196;2023-04-05T03:55:05;54753.81;;;-145.32;100.00
14041;BME280;7095;51.388;6.196;2023-04-05T03:57:37;54747.84;;;-145.32;100.00
14041;BME280;7095;51.388;6.196;2023-04-05T04:00:27;54785.63;;;-145.32;100.00
14041;BME280;7095;51.388;6.196;2023-04-05T04:03:21;54773.69;;;-145.32;100.00
14041;BME280;7095;51.388;6.196;2023-04-05T04:05:52;54775.69;;;-145.32;100.00
14041;BME280;7095;51.388;6.196;2023-04-05T04:08:21;54735.91;;;-145.32;100.00
14041;BME280;7095;51.388;6.196;2023-04-05T04:10:49;54777.66;;;-145.32;100.00
14041;BME280;7095;51.388;6.196;2023-04-05T04:13:25;54759.78;;;-145.32;100.00
14041;BME280;7095;51.388;6.196;2023-04-05T04:16:14;54755.78;;;-145.32;100.00
14041;BME280;7095;51.388;6.196;2023-04-05T04:18:44;54765.72;;;-145.32;100.00
14041;BME280;7095;51.388;6.196;2023-04-05T04:21:36;54777.66;;;-145.32;100.00
14041;BME280;7095;51.388;6.196;2023-04-05T04:24:31;54775.69;;;-145.32;100.00
14041;BME280;7095;51.388;6.196;2023-04-05T04:27:08;54789.59;;;-145.32;100.00
14041;BME280;7095;51.388;6.196;2023-04-05T04:29:57;54783.63;;;-145.32;100.00
14041;BME280;7095;51.388;6.196;2023-04-05T04:32:33;54785.63;;;-145.32;100.00
14041;BME280;7095;51.388;6.196;2023-04-05T04:35:39;54797.56;;;-145.32;100.00
14041;BME280;7095;51.388;6.196;2023-04-05T04:38:27;54867.16;;;-145.32;100.00
14041;BME280;7095;51.388;6.196;2023-04-05T04:41:13;54819.44;;;-145.32;100.00
14041;BME280;7095;51.388;6.196;2023-04-05T04:44:09;54823.41;;;-145.32;100.00
14041;BME280;7095;51.388;6.196;2023-04-05T04:47:11;54873.13;;;-145.32;100.00
14041;BME280;7095;51.388;6.196;2023-04-05T04:49:57;54823.41;;;-145.32;100.00
14041;BME280;7095;51.388;6.196;2023-04-05T04:52:27;54843.28;;;-145.32;100.00
14041;BME280;7095;51.388;6.196;2023-04-05T04:54:55;54841.31;;;-145.32;100.00
14041;BME280;7095;51.388;6.196;2023-04-05T04:57:24;54897.00;;;-145.32;100.00
14041;BME280;7095;51.388;6.196;2023-04-05T04:59:53;54859.22;;;-145.32;100.00
14041;BME280;7095;51.388;6.196;2023-04-05T05:02:24;54859.22;;;-145.32;100.00
14041;BME280;7095;51.388;6.196;2023-04-05T05:04:54;54843.28;;;-145.32;100.00
14041;BME280;7095;51.388;6.196;2023-04-05T05:07:23;54825.41;;;-145.32;100.00
14041;BME280;7095;51.388;6.196;2023-04-05T05:09:51;54883.06;;;-145.32;100.00
14041;BME280;7095;51.388;6.196;2023-04-05T05:12:20;54853.25;;;-145.32;100.00
14041;BME280;7095;51.388;6.196;2023-04-05T05:14:48;54879.09;;;-145.32;100.00
14041;BME280;7095;51.388;6.196;2023-04-05T05:17:19;54930.81;;;-145.32;100.00
14041;BME280;7095;51.388;6.196;2023-04-05T05:19:50;54916.88;;;-145.32;100.00
14041;BME280;7095;51.388;6.196;2023-04-05T05:22:22;54859.22;;;-145.32;100.00
14041;BME280;7095;51.388;6.196;2023-04-05T05:24:50;54853.25;;;-145.32;100.00
14041;BME280;7095;51.388;6.196;2023-04-05T05:27:19;54851.25;;;-145.32;100.00
14041;BME280;7095;51.388;6.196;2023-04-05T05:29:48;54833.34;;;-145.32;100.00
14041;BME280;7095;51.388;6.196;2023-04-05T05:32:16;54801.53;;;-145.32;100.00
14041;BME280;7095;51.388;6.196;2023-04-05T05:34:45;54817.44;;;-145.32;100.00
14041;BME280;7095;51.388;6.196;2023-04-05T05:37:16;54914.91;;;-145.32;100.00
14041;BME280;7095;51.388;6.196;2023-04-05T05:39:45;55010.38;;;-145.32;100.00
14041;BME280;7095;51.388;6.196;2023-04-05T05:42:13;55014.34;;;-145.32;100.00
14041;BME280;7095;51.388;6.196;2023-04-05T05:44:42;55022.31;;;-145.32;100.00
14041;BME280;7095;51.388;6.196;2023-04-05T05:47:11;54934.78;;;-145.32;100.00
14041;BME280;7095;51.388;6.196;2023-04-05T05:49:39;54944.72;;;-145.32;100.00
14041;BME280;7095;51.388;6.196;2023-04-05T05:52:08;55020.31;;;-145.32;100.00
14041;BME280;7095;51.388;6.196;2023-04-05T05:54:38;55042.19;;;-145.32;100.00
14041;BME280;7095;51.388;6.196;2023-04-05T05:57:06;55087.94;;;-145.32;100.00
14041;BME280;7095;51.388;6.196;2023-04-05T05:59:35;55165.50;;;-145.32;100.00
14041;BME280;7095;51.388;6.196;2023-04-05T06:02:04;55193.34;;;-145.32;100.00
14041;BME280;7095;51.388;6.196;2023-04-05T06:04:32;55241.09;;;-145.32;100.00
14041;BME280;7095;51.388;6.196;2023-04-05T06:07:01;55296.78;;;-145.32;100.00
14041;BME280;7095;51.388;6.196;2023-04-05T06:09:30;55356.47;;;-145.32;100.00
14041;BME280;7095;51.388;6.196;2023-04-05T06:12:01;55352.47;;;-145.32;100.00
14041;BME280;7095;51.388;6.196;2023-04-05T06:14:29;55296.78;;;-145.32;100.00
14041;BME280;7095;51.388;6.196;2023-04-05T06:16:58;55318.66;;;-145.32;100.00
14041;BME280;7095;51.388;6.196;2023-04-05T06:19:27;55394.25;;;-145.32;100.00
14041;BME280;7095;51.388;6.196;2023-04-05T06:21:55;55394.25;;;-145.32;100.00
14041;BME280;7095;51.388;6.196;2023-04-05T06:24:23;55432.06;;;-145.32;100.00
14041;BME280;7095;51.388;6.196;2023-04-05T06:26:52;55406.19;;;-145.32;100.00
14041;BME280;7095;51.388;6.196;2023-04-05T06:29:22;55404.19;;;-145.32;100.00
14041;BME280;7095;51.388;6.196;2023-04-05T06:31:50;55467.84;;;-145.32;100.00
14041;BME280;7095;51.388;6.196;2023-04-05T06:34:19;55449.94;;;-145.32;100.00
14041;BME280;7095;51.388;6.196;2023-04-05T06:36:47;55469.84;;;-145.32;100.00
14041;BME280;7095;51.388;6.196;2023-04-05T06:39:16;55461.88;;;-145.32;100.00
14041;BME280;7095;51.388;6.196;2023-04-05T06:41:44;55442.00;;;-145.32;100.00
14041;BME280;7095;51.388;6.196;2023-04-05T06:44:13;55521.56;;;-145.32;100.00
14041;BME280;7095;51.388;6.196;2023-04-05T06:46:42;55485.75;;;-145.32;100.00
14041;BME280;7095;51.388;6.196;2023-04-05T06:49:11;55501.66;;;-145.32;100.00
14041;BME280;7095;51.388;6.196;2023-04-05T06:51:39;55408.19;;;-145.32;100.00
14041;BME280;7095;51.388;6.196;2023-04-05T06:54:08;55332.59;;;-145.32;100.00
14041;BME280;7095;51.388;6.196;2023-04-05T06:56:36;55362.44;;;-145.32;100.00
14041;BME280;7095;51.388;6.196;2023-04-05T06:59:05;55527.53;;;-145.32;100.00
14041;BME280;7095;51.388;6.196;2023-04-05T07:01:33;55414.16;;;-145.32;100.00
14041;BME280;7095;51.388;6.196;2023-04-05T07:04:03;55328.63;;;-145.32;100.00
14041;BME280;7095;51.388;6.196;2023-04-05T07:06:32;55336.56;;;-145.32;100.00
14041;BME280;7095;51.388;6.196;2023-04-05T07:09:08;55310.72;;;-145.32;100.00
14041;BME280;7095;51.388;6.196;2023-04-05T07:11:36;55360.44;;;-145.32;100.00
14041;BME280;7095;51.388;6.196;2023-04-05T07:14:06;55259.00;;;-145.32;100.00
14041;BME280;7095;51.388;6.196;2023-04-05T07:16:34;55272.91;;;-145.32;100.00
14041;BME280;7095;51.388;6.196;2023-04-05T07:19:04;55149.59;;;-145.32;100.00
14041;BME280;7095;51.388;6.196;2023-04-05T07:21:33;55008.38;;;-145.32;100.00
14041;BME280;7095;51.388;6.196;2023-04-05T07:24:01;54966.59;;;-145.32;100.00
14041;BME280;7095;51.388;6.196;2023-04-05T07:26:30;54819.44;;;-145.32;100.00
14041;BME280;7095;51.388;6.196;2023-04-05T07:29:01;54741.88;;;-145.32;100.00
14041;BME280;7095;51.388;6.196;2023-04-05T07:31:30;54712.03;;;-145.32;100.00
14041;BME280;7095;51.388;6.196;2023-04-05T07:33:58;54749.81;;;-145.32;100.00
14041;BME280;7095;51.388;6.196;2023-04-05T07:36:28;54664.31;;;-145.32;100.00
14041;BME280;7095;51.388;6.196;2023-04-05T07:38:57;54588.75;;;-145.32;100.00
14041;BME280;7095;51.388;6.196;2023-04-05T07:41:27;54578.78;;;-145.32;100.00
14041;BME280;7095;51.388;6.196;2023-04-05T07:43:57;54471.41;;;-145.32;100.00
14041;BME280;7095;51.388;6.196;2023-04-05T07:46:26;54455.50;;;-145.32;100.00
14041;BME280;7095;51.388;6.196;2023-04-05T07:48:56;54230.78;;;-145.32;100.00
14041;BME280;7095;51.388;6.196;2023-04-05T07:51:24;54246.69;;;-145.32;100.00
14041;BME280;7095;51.388;6.196;2023-04-05T07:53:54;54312.31;;;-145.32;100.00
14041;BME280;7095;51.388;6.196;2023-04-05T07:56:23;54320.28;;;-145.32;100.00
14041;BME280;7095;51.388;6.196;2023-04-05T07:58:51;54314.31;;;-145.32;100.00
14041;BME280;7095;51.388;6.196;2023-04-05T08:01:21;54332.19;;;-145.32;100.00
14041;BME280;7095;51.388;6.196;2023-04-05T08:03:53;54330.22;;;-145.32;100.00
14041;BME280;7095;51.388;6.196;2023-04-05T08:06:23;54248.69;;;-145.32;100.00
14041;BME280;7095;51.388;6.196;2023-04-05T08:08:54;54270.56;;;-145.32;100.00
14041;BME280;7095;51.388;6.196;2023-04-05T08:11:23;54232.78;;;-145.32;100.00
14041;BME280;7095;51.388;6.196;2023-04-05T08:13:52;54222.84;;;-145.32;100.00
14041;BME280;7095;51.388;6.196;2023-04-05T08:16:21;54181.06;;;-145.32;100.00
14041;BME280;7095;51.388;6.196;2023-04-05T08:18:49;54143.28;;;-145.32;100.00
14041;BME280;7095;51.388;6.196;2023-04-05T08:21:17;54151.25;;;-145.32;100.00
14041;BME280;7095;51.388;6.196;2023-04-05T08:23:46;54139.31;;;-145.32;100.00
14041;BME280;7095;51.388;6.196;2023-04-05T08:26:17;54135.34;;;-145.32;100.00
14041;BME280;7095;51.388;6.196;2023-04-05T08:28:45;54067.75;;;-145.32;100.00
14041;BME280;7095;51.388;6.196;2023-04-05T08:31:14;54085.63;;;-145.32;100.00
14041;BME280;7095;51.388;6.196;2023-04-05T08:33:42;54039.91;;;-145.32;100.00
14041;BME280;7095;51.388;6.196;2023-04-05T08:36:11;54055.81;;;-145.32;100.00
14041;BME280;7095;51.388;6.196;2023-04-05T08:38:39;54027.97;;;-145.32;100.00
14041;BME280;7095;51.388;6.196;2023-04-05T08:41:13;54014.06;;;-145.32;100.00
14041;BME280;7095;51.388;6.196;2023-04-05T08:43:54;53992.19;;;-145.32;100.00
14041;BME280;7095;51.388;6.196;2023-04-05T08:46:23;54024.00;;;-145.32;100.00
14041;BME280;7095;51.388;6.196;2023-04-05T08:48:53;53962.34;;;-145.32;100.00
14041;BME280;7095;51.388;6.196;2023-04-05T08:51:23;53928.56;;;-145.32;100.00
14041;BME280;7095;51.388;6.196;2023-04-05T08:53:52;53952.41;;;-145.32;100.00
14041;BME280;7095;51.388;6.196;2023-04-05T08:56:24;53936.50;;;-145.32;100.00
14041;BME280;7095;51.388;6.196;2023-04-05T08:58:59;53954.41;;;-145.32;100.00
14041;BME280;7095;51.388;6.196;2023-04-05T09:01:30;53934.50;;;-145.32;100.00
14041;BME280;7095;51.388;6.196;2023-04-05T09:04:01;53912.66;;;-145.32;100.00
14041;BME280;7095;51.388;6.196;2023-04-05T09:06:34;53892.75;;;-145.32;100.00
14041;BME280;7095;51.388;6.196;2023-04-05T09:09:06;53908.66;;;-145.32;100.00
14041;BME280;7095;51.388;6.196;2023-04-05T09:11:35;53916.63;;;-145.32;100.00
14041;BME280;7095;51.388;6.196;2023-04-05T09:14:05;53884.81;;;-145.32;100.00
14041;BME280;7095;51.388;6.196;2023-04-05T09:16:36;53890.78;;;-145.32;100.00
14041;BME280;7095;51.388;6.196;2023-04-05T09:19:05;53872.88;;;-145.32;100.00
14041;BME280;7095;51.388;6.196;2023-04-05T09:22:01;53866.91;;;-145.32;100.00
14041;BME280;7095;51.388;6.196;2023-04-05T09:24:36;53878.84;;;-145.32;100.00
14041;BME280;7095;51.388;6.196;2023-04-05T09:27:09;53896.75;;;-145.32;100.00
14041;BME280;7095;51.388;6.196;2023-04-05T09:29:40;53854.97;;;-145.32;100.00
14041;BME280;7095;51.388;6.196;2023-04-05T09:32:10;53851.00;;;-145.32;100.00
14041;BME280;7095;51.388;6.196;2023-04-05T09:34:42;53858.97;;;-145.32;100.00
14041;BME280;7095;51.388;6.196;2023-04-05T09:37:31;53829.13;;;-145.32;100.00
14041;BME280;7095;51.388;6.196;2023-04-05T09:40:01;53839.06;;;-145.32;100.00
14041;BME280;7095;51.388;6.196;2023-04-05T09:42:41;53805.28;;;-145.32;100.00
14041;BME280;7095;51.388;6.196;2023-04-05T09:45:12;53849.03;;;-145.32;100.00
14041;BME280;7095;51.388;6.196;2023-04-05T09:47:55;53837.09;;;-145.32;100.00
14041;BME280;7095;51.388;6.196;2023-04-05T09:50:24;53789.38;;;-145.32;100.00
14041;BME280;7095;51.388;6.196;2023-04-05T09:53:05;53781.41;;;-145.32;90.57
14041;BME280;7095;51.388;6.196;2023-04-05T09:55:35;53777.44;;;-145.32;97.50
14041;BME280;7095;51.388;6.196;2023-04-05T09:58:04;53797.31;;;-145.32;85.06
14041;BME280;7095;51.388;6.196;2023-04-05T10:00:35;53801.31;;;-145.32;75.44
14041;BME280;7095;51.388;6.196;2023-04-05T10:03:04;53769.50;;;-145.32;78.32
14041;BME280;7095;51.388;6.196;2023-04-05T10:05:32;53779.44;;;-145.32;79.41
14041;BME280;7095;51.388;6.196;2023-04-05T10:08:01;53761.53;;;-145.32;81.59
14041;BME280;7095;51.388;6.196;2023-04-05T10:10:36;53735.69;;;-145.32;82.95
14041;BME280;7095;51.388;6.196;2023-04-05T10:13:13;53767.50;;;-145.32;77.38
14041;BME280;7095;51.388;6.196;2023-04-05T10:15:46;53787.38;;;-145.32;73.48
14041;BME280;7095;51.388;6.196;2023-04-05T10:18:20;53769.50;;;-145.32;74.66
14041;BME280;7095;51.388;6.196;2023-04-05T10:20:49;53727.75;;;-145.32;64.26
14041;BME280;7095;51.388;6.196;2023-04-05T10:23:23;53757.56;;;-145.32;67.96
14041;BME280;7095;51.388;6.196;2023-04-05T10:25:59;53745.63;;;-145.32;56.95
14041;BME280;7095;51.388;6.196;2023-04-05T10:28:35;53741.66;;;-145.32;64.74
14041;BME280;7095;51.388;6.196;2023-04-05T10:31:10;53745.63;;;-145.32;62.89
14041;BME280;7095;51.388;6.196;2023-04-05T10:33:54;53747.63;;;-145.32;56.10
14041;BME280;7095;51.388;6.196;2023-04-05T10:36:35;53725.75;;;-145.32;58.48
14041;BME280;7095;51.388;6.196;2023-04-05T10:39:21;53715.81;;;-145.32;54.20
14041;BME280;7095;51.388;6.196;2023-04-05T10:41:53;53717.78;;;-145.32;58.77
14041;BME280;7095;51.388;6.196;2023-04-05T10:44:24;53729.72;;;-145.32;57.09
14041;BME280;7095;51.388;6.196;2023-04-05T10:46:55;53711.84;;;-145.32;58.53
14041;BME280;7095;51.388;6.196;2023-04-05T10:49:31;53713.81;;;-145.32;57.51
14041;BME280;7095;51.388;6.196;2023-04-05T10:52:02;53697.91;;;-145.32;60.04
14041;BME280;7095;51.388;6.196;2023-04-05T10:54:32;53727.75;;;-145.32;62.15
14041;BME280;7095;51.388;6.196;2023-04-05T10:57:04;53676.03;;;-145.32;62.03
14041;BME280;7095;51.388;6.196;2023-04-05T10:59:42;53686.00;;;-145.32;60.37
14041;BME280;7095;51.388;6.196;2023-04-05T11:02:13;53699.91;;;-145.32;55.29
14041;BME280;7095;51.388;6.196;2023-04-05T11:04:42;53697.91;;;-145.32;58.05
14041;BME280;7095;51.388;6.196;2023-04-05T11:07:13;53719.78;;;-145.32;54.75
14041;BME280;7095;51.388;6.196;2023-04-05T11:09:54;53680.03;;;-145.32;50.08
14041;BME280;7095;51.388;6.196;2023-04-05T11:13:03;53689.97;;;-145.32;51.66
14041;BME280;7095;51.388;6.196;2023-04-05T11:15:33;53674.06;;;-145.32;48.50
14041;BME280;7095;51.388;6.196;2023-04-05T11:18:06;53666.09;;;-145.32;45.87
14041;BME280;7095;51.388;6.196;2023-04-05T11:20:48;53678.03;;;-145.32;46.18
14041;BME280;7095;51.388;6.196;2023-04-05T11:23:20;53654.19;;;-145.32;46.87
14041;BME280;7095;51.388;6.196;2023-04-05T11:25:50;53638.28;;;-145.32;50.08
14041;BME280;7095;51.388;6.196;2023-04-05T11:28:23;53618.38;;;-145.32;46.62
14041;BME280;7095;51.388;6.196;2023-04-05T11:30:52;53640.25;;;-145.32;47.81
14041;BME280;7095;51.388;6.196;2023-04-05T11:33:39;53608.44;;;-145.32;45.99
14041;BME280;7095;51.388;6.196;2023-04-05T11:36:31;53638.28;;;-145.32;46.51
14041;BME280;7095;51.388;6.196;2023-04-05T11:39:25;53634.28;;;-145.32;45.23
14041;BME280;7095;51.388;6.196;2023-04-05T11:42:01;53640.25;;;-145.32;45.60
14041;BME280;7095;51.388;6.196;2023-04-05T11:44:40;53618.38;;;-145.32;45.38
14041;BME280;7095;51.388;6.196;2023-04-05T11:47:09;53632.31;;;-145.32;46.45
14041;BME280;7095;51.388;6.196;2023-04-05T11:49:39;53620.38;;;-145.32;46.18
14041;BME280;7095;51.388;6.196;2023-04-05T11:52:13;53580.63;;;-145.32;47.62
14041;BME280;7095;51.388;6.196;2023-04-05T11:54:42;53608.44;;;-145.32;46.35
14041;BME280;7095;51.388;6.196;2023-04-05T11:57:18;53606.47;;;-145.32;46.39
14041;BME280;7095;51.388;6.196;2023-04-05T11:59:48;53614.41;;;-145.32;46.34
14041;BME280;7095;51.388;6.196;2023-04-05T12:02:18;53618.38;;;-145.32;45.64
14041;BME280;7095;51.388;6.196;2023-04-05T12:04:54;53578.63;;;-145.32;44.36
14041;BME280;7095;51.388;6.196;2023-04-05T12:07:26;53602.47;;;-145.32;42.96
14041;BME280;7095;51.388;6.196;2023-04-05T12:10:03;53592.53;;;-145.32;42.93
14041;BME280;7095;51.388;6.196;2023-04-05T12:12:34;53604.47;;;-145.32;41.84
14041;BME280;7095;51.388;6.196;2023-04-05T12:15:05;53594.53;;;-145.32;42.18
14041;BME280;7095;51.388;6.196;2023-04-05T12:17:43;53576.63;;;-145.32;41.51
14041;BME280;7095;51.388;6.196;2023-04-05T12:20:15;53554.78;;;-145.32;42.38
14041;BME280;7095;51.388;6.196;2023-04-05T12:22:46;53574.66;;;-145.32;43.28
14041;BME280;7095;51.388;6.196;2023-04-05T12:25:16;53532.91;;;-145.32;44.17
14041;BME280;7095;51.388;6.196;2023-04-05T12:27:45;53520.97;;;-145.32;42.96
14041;BME280;7095;51.388;6.196;2023-04-05T12:30:15;53558.75;;;-145.32;43.22
14041;BME280;7095;51.388;6.196;2023-04-05T12:32:46;53540.84;;;-145.32;42.43
14041;BME280;7095;51.388;6.196;2023-04-05T12:35:17;53518.97;;;-145.32;43.43
14041;BME280;7095;51.388;6.196;2023-04-05T12:37:46;53515.00;;;-145.32;44.29
14041;BME280;7095;51.388;6.196;2023-04-05T12:40:19;53487.19;;;-145.32;41.81
14041;BME280;7095;51.388;6.196;2023-04-05T12:42:48;53431.50;;;-145.32;42.20
14041;BME280;7095;51.388;6.196;2023-04-05T12:45:16;53417.59;;;-145.32;41.87
14041;BME280;7095;51.388;6.196;2023-04-05T12:47:50;53403.69;;;-145.32;39.66
14041;BME280;7095;51.388;6.196;2023-04-05T12:50:25;53371.88;;;-145.32;38.70
14041;BME280;7095;51.388;6.196;2023-04-05T12:52:56;53411.63;;;-145.32;40.05
14041;BME280;7095;51.388;6.196;2023-04-05T12:55:26;53391.75;;;-145.32;38.00
14041;BME280;7095;51.388;6.196;2023-04-05T12:57:57;53387.78;;;-145.32;35.82
14041;BME280;7095;51.388;6.196;2023-04-05T13:00:28;53379.81;;;-145.32;37.21
14041;BME280;7095;51.388;6.196;2023-04-05T13:02:58;53363.91;;;-145.32;37.23
14041;BME280;7095;51.388;6.196;2023-04-05T13:05:29;53369.88;;;-145.32;36.23
14041;BME280;7095;51.388;6.196;2023-04-05T13:07:58;53367.91;;;-145.32;36.64
14041;BME280;7095;51.388;6.196;2023-04-05T13:10:26;53340.06;;;-145.32;36.42
14041;BME280;7095;51.388;6.196;2023-04-05T13:12:55;53344.03;;;-145.32;36.11
14041;BME280;7095;51.388;6.196;2023-04-05T13:15:23;53328.13;;;-145.32;35.64
14041;BME280;7095;51.388;6.196;2023-04-05T13:17:53;53350.00;;;-145.32;35.36